sensor_id;sensor_type;location;lat;lon;timestamp;temperature;humidity
11446;DHT22;5779;64.178;15.432;2022-09-09T00:00:12;10.20;99.90
11446;DHT22;5779;64.178;15.432;2022-09-09T00:03:07;10.30;99.90
11446;DHT22;5779;64.178;15.432;2022-09-09T00:06:02;10.30;99.90
11446;DHT22;5779;64.178;15.432;2022-09-09T00:08:59;10.20;99.90
11446;DHT22;5779;64.178;15.432;2022-09-09T00:11:51;10.20;99.90
11446;DHT22;5779;64.178;15.432;2022-09-09T00:14:46;10.10;99.90
11446;DHT22;5779;64.178;15.432;2022-09-09T00:17:38;10.00;99.90
11446;DHT22;5779;64.178;15.432;2022-09-09T00:20:30;9.90;99.90
11446;DHT22;5779;64.178;15.432;2022-09-09T00:23:24;10.00;99.90
11446;DHT22;5779;64.178;15.432;2022-09-09T00:26:16;10.00;99.90
11446;DHT22;5779;64.178;15.432;2022-09-09T00:29:22;10.10;99.90
11446;DHT22;5779;64.178;15.432;2022-09-09T00:32:16;10.10;99.90
11446;DHT22;5779;64.178;15.432;2022-09-09T00:35:11;10.20;99.90
11446;DHT22;5779;64.178;15.432;2022-09-09T00:38:06;10.10;99.90
11446;DHT22;5779;64.178;15.432;2022-09-09T00:41:03;10.20;99.90
11446;DHT22;5779;64.178;15.432;2022-09-09T00:43:57;10.10;99.90
11446;DHT22;5779;64.178;15.432;2022-09-09T00:46:59;10.00;99.90
11446;DHT22;5779;64.178;15.432;2022-09-09T00:49:57;10.10;99.90
11446;DHT22;5779;64.178;15.432;2022-09-09T00:52:51;10.00;99.90
11446;DHT22;5779;64.178;15.432;2022-09-09T00:55:47;10.10;99.90
11446;DHT22;5779;64.178;15.432;2022-09-09T00:58:35;10.20;99.90
11446;DHT22;5779;64.178;15.432;2022-09-09T01:01:22;10.10;99.90
11446;DHT22;5779;64.178;15.432;2022-09-09T01:04:13;10.20;99.90
11446;DHT22;5779;64.178;15.432;2022-09-09T01:07:10;10.10;99.90
11446;DHT22;5779;64.178;15.432;2022-09-09T01:10:03;10.10;99.90
11446;DHT22;5779;64.178;15.432;2022-09-09T01:12:52;10.00;99.90
11446;DHT22;5779;64.178;15.432;2022-09-09T01:15:41;10.00;99.90
11446;DHT22;5779;64.178;15.432;2022-09-09T01:18:35;10.10;99.90
11446;DHT22;5779;64.178;15.432;2022-09-09T01:21:41;10.00;99.90
11446;DHT22;5779;64.178;15.432;2022-09-09T01:24:40;10.00;99.90
11446;DHT22;5779;64.178;15.432;2022-09-09T01:27:30;10.00;99.90
11446;DHT22;5779;64.178;15.432;2022-09-09T01:30:19;10.20;99.90
11446;DHT22;5779;64.178;15.432;2022-09-09T01:33:10;10.10;99.90
11446;DHT22;5779;64.178;15.432;2022-09-09T01:36:02;10.00;99.90
11446;DHT22;5779;64.178;15.432;2022-09-09T01:38:50;10.10;99.90
11446;DHT22;5779;64.178;15.432;2022-09-09T01:41:37;10.10;99.90
11446;DHT22;5779;64.178;15.432;2022-09-09T01:44:27;10.00;99.90
11446;DHT22;5779;64.178;15.432;2022-09-09T01:47:15;9.90;99.90
11446;DHT22;5779;64.178;15.432;2022-09-09T01:50:03;9.90;99.90
11446;DHT22;5779;64.178;15.432;2022-09-09T01:52:53;9.90;99.90
11446;DHT22;5779;64.178;15.432;2022-09-09T01:55:45;9.80;99.90
11446;DHT22;5779;64.178;15.432;2022-09-09T01:58:40;9.80;99.90
11446;DHT22;5779;64.178;15.432;2022-09-09T02:01:45;9.80;99.90
11446;DHT22;5779;64.178;15.432;2022-09-09T02:04:39;9.80;99.90
11446;DHT22;5779;64.178;15.432;2022-09-09T02:07:38;9.70;99.90
11446;DHT22;5779;64.178;15.432;2022-09-09T02:10:30;9.60;99.90
11446;DHT22;5779;64.178;15.432;2022-09-09T02:13:20;9.60;99.90
11446;DHT22;5779;64.178;15.432;2022-09-09T02:16:10;9.60;99.90
11446;DHT22;5779;64.178;15.432;2022-09-09T02:19:02;9.50;99.90
11446;DHT22;5779;64.178;15.432;2022-09-09T02:21:54;9.50;99.90
11446;DHT22;5779;64.178;15.432;2022-09-09T02:24:42;9.50;99.90
11446;DHT22;5779;64.178;15.432;2022-09-09T02:27:31;9.50;99.90
11446;DHT22;5779;64.178;15.432;2022-09-09T02:30:18;9.50;99.90
11446;DHT22;5779;64.178;15.432;2022-09-09T02:33:07;9.40;99.90
11446;DHT22;5779;64.178;15.432;2022-09-09T02:35:58;9.40;99.90
11446;DHT22;5779;64.178;15.432;2022-09-09T02:38:48;9.40;99.90
11446;DHT22;5779;64.178;15.432;2022-09-09T02:41:40;9.30;99.90
11446;DHT22;5779;64.178;15.432;2022-09-09T02:44:27;9.30;99.90
11446;DHT22;5779;64.178;15.432;2022-09-09T02:47:25;9.30;99.90
11446;DHT22;5779;64.178;15.432;2022-09-09T02:50:17;9.30;99.90
11446;DHT22;5779;64.178;15.432;2022-09-09T02:53:12;9.30;99.90
11446;DHT22;5779;64.178;15.432;2022-09-09T02:56:05;9.00;99.90
11446;DHT22;5779;64.178;15.432;2022-09-09T02:58:54;9.00;99.90
11446;DHT22;5779;64.178;15.432;2022-09-09T03:01:41;9.10;99.90
11446;DHT22;5779;64.178;15.432;2022-09-09T03:04:29;9.20;99.90
11446;DHT22;5779;64.178;15.432;2022-09-09T03:07:16;9.10;99.90
11446;DHT22;5779;64.178;15.432;2022-09-09T03:10:06;9.20;99.90
11446;DHT22;5779;64.178;15.432;2022-09-09T03:12:55;9.20;99.90
11446;DHT22;5779;64.178;15.432;2022-09-09T03:15:42;9.30;99.90
11446;DHT22;5779;64.178;15.432;2022-09-09T03:18:29;9.40;99.90
11446;DHT22;5779;64.178;15.432;2022-09-09T03:21:16;9.30;99.90
11446;DHT22;5779;64.178;15.432;2022-09-09T03:24:04;9.30;99.90
11446;DHT22;5779;64.178;15.432;2022-09-09T03:26:53;9.20;99.90
11446;DHT22;5779;64.178;15.432;2022-09-09T03:29:40;9.40;99.90
11446;DHT22;5779;64.178;15.432;2022-09-09T03:32:27;9.20;99.90
11446;DHT22;5779;64.178;15.432;2022-09-09T03:35:14;9.10;99.90
11446;DHT22;5779;64.178;15.432;2022-09-09T03:38:01;9.10;99.90
11446;DHT22;5779;64.178;15.432;2022-09-09T03:40:50;9.10;99.90
11446;DHT22;5779;64.178;15.432;2022-09-09T03:43:42;9.10;99.90
11446;DHT22;5779;64.178;15.432;2022-09-09T03:46:28;9.10;99.90
11446;DHT22;5779;64.178;15.432;2022-09-09T03:49:15;9.00;99.90
11446;DHT22;5779;64.178;15.432;2022-09-09T03:52:02;9.10;99.90
11446;DHT22;5779;64.178;15.432;2022-09-09T03:54:48;9.00;99.90
11446;DHT22;5779;64.178;15.432;2022-09-09T03:57:36;8.90;99.90
11446;DHT22;5779;64.178;15.432;2022-09-09T04:00:24;9.00;99.90
11446;DHT22;5779;64.178;15.432;2022-09-09T04:03:12;9.00;99.90
11446;DHT22;5779;64.178;15.432;2022-09-09T04:06:00;9.00;99.90
11446;DHT22;5779;64.178;15.432;2022-09-09T04:08:48;9.00;99.90
11446;DHT22;5779;64.178;15.432;2022-09-09T04:11:35;9.00;99.90
11446;DHT22;5779;64.178;15.432;2022-09-09T04:14:22;8.90;99.90
11446;DHT22;5779;64.178;15.432;2022-09-09T04:17:10;8.90;99.90
11446;DHT22;5779;64.178;15.432;2022-09-09T04:19:56;9.00;99.90
11446;DHT22;5779;64.178;15.432;2022-09-09T04:22:43;9.00;99.90
11446;DHT22;5779;64.178;15.432;2022-09-09T04:25:29;9.10;99.90
11446;DHT22;5779;64.178;15.432;2022-09-09T04:28:17;9.20;99.90
11446;DHT22;5779;64.178;15.432;2022-09-09T04:31:05;9.10;99.90
11446;DHT22;5779;64.178;15.432;2022-09-09T04:33:54;9.20;99.90
11446;DHT22;5779;64.178;15.432;2022-09-09T04:36:41;9.10;99.90
11446;DHT22;5779;64.178;15.432;2022-09-09T04:39:27;8.90;99.90
11446;DHT22;5779;64.178;15.432;2022-09-09T04:42:14;8.80;99.90
11446;DHT22;5779;64.178;15.432;2022-09-09T04:45:01;8.80;99.90
11446;DHT22;5779;64.178;15.432;2022-09-09T04:47:48;8.90;99.90
11446;DHT22;5779;64.178;15.432;2022-09-09T04:50:36;8.90;99.90
11446;DHT22;5779;64.178;15.432;2022-09-09T04:53:23;9.10;99.90
11446;DHT22;5779;64.178;15.432;2022-09-09T04:56:11;9.20;99.90
11446;DHT22;5779;64.178;15.432;2022-09-09T04:58:58;9.10;99.90
11446;DHT22;5779;64.178;15.432;2022-09-09T05:01:47;9.10;99.90
11446;DHT22;5779;64.178;15.432;2022-09-09T05:04:35;9.00;99.90
11446;DHT22;5779;64.178;15.432;2022-09-09T05:07:23;9.00;99.90
11446;DHT22;5779;64.178;15.432;2022-09-09T05:10:11;9.10;99.90
11446;DHT22;5779;64.178;15.432;2022-09-09T05:12:59;9.00;99.90
11446;DHT22;5779;64.178;15.432;2022-09-09T05:15:52;9.10;99.90
11446;DHT22;5779;64.178;15.432;2022-09-09T05:18:39;9.00;99.90
11446;DHT22;5779;64.178;15.432;2022-09-09T05:21:27;9.00;99.90
11446;DHT22;5779;64.178;15.432;2022-09-09T05:24:18;9.00;99.90
11446;DHT22;5779;64.178;15.432;2022-09-09T05:27:05;8.90;99.90
11446;DHT22;5779;64.178;15.432;2022-09-09T05:29:52;8.90;99.90
11446;DHT22;5779;64.178;15.432;2022-09-09T05:32:39;8.90;99.90
11446;DHT22;5779;64.178;15.432;2022-09-09T05:35:26;9.00;99.90
11446;DHT22;5779;64.178;15.432;2022-09-09T05:38:13;9.10;99.90
11446;DHT22;5779;64.178;15.432;2022-09-09T05:41:01;9.10;99.90
11446;DHT22;5779;64.178;15.432;2022-09-09T05:43:49;9.00;99.90
11446;DHT22;5779;64.178;15.432;2022-09-09T05:46:35;8.80;99.90
11446;DHT22;5779;64.178;15.432;2022-09-09T05:49:22;8.90;99.90
11446;DHT22;5779;64.178;15.432;2022-09-09T05:52:09;8.90;99.90
11446;DHT22;5779;64.178;15.432;2022-09-09T05:54:56;8.90;99.90
11446;DHT22;5779;64.178;15.432;2022-09-09T05:57:49;8.70;99.90
11446;DHT22;5779;64.178;15.432;2022-09-09T06:00:37;8.70;99.90
11446;DHT22;5779;64.178;15.432;2022-09-09T06:03:23;8.70;99.90
11446;DHT22;5779;64.178;15.432;2022-09-09T06:06:12;8.90;99.90
11446;DHT22;5779;64.178;15.432;2022-09-09T06:08:59;9.00;99.90
11446;DHT22;5779;64.178;15.432;2022-09-09T06:11:45;9.00;99.90
11446;DHT22;5779;64.178;15.432;2022-09-09T06:14:34;8.80;99.90
11446;DHT22;5779;64.178;15.432;2022-09-09T06:17:22;8.80;99.90
11446;DHT22;5779;64.178;15.432;2022-09-09T06:20:09;8.90;99.90
11446;DHT22;5779;64.178;15.432;2022-09-09T06:22:55;8.90;99.90
11446;DHT22;5779;64.178;15.432;2022-09-09T06:25:42;9.00;99.90
11446;DHT22;5779;64.178;15.432;2022-09-09T06:28:28;9.10;99.90
11446;DHT22;5779;64.178;15.432;2022-09-09T06:31:18;9.20;99.90
11446;DHT22;5779;64.178;15.432;2022-09-09T06:34:07;9.20;99.90
11446;DHT22;5779;64.178;15.432;2022-09-09T06:36:54;9.20;99.90
11446;DHT22;5779;64.178;15.432;2022-09-09T06:39:42;9.40;99.90
11446;DHT22;5779;64.178;15.432;2022-09-09T06:42:30;9.20;99.90
11446;DHT22;5779;64.178;15.432;2022-09-09T06:45:18;9.30;99.90
11446;DHT22;5779;64.178;15.432;2022-09-09T06:48:06;9.30;99.90
11446;DHT22;5779;64.178;15.432;2022-09-09T06:51:01;9.30;99.90
11446;DHT22;5779;64.178;15.432;2022-09-09T06:53:50;9.30;99.90
11446;DHT22;5779;64.178;15.432;2022-09-09T06:56:38;9.30;99.90
11446;DHT22;5779;64.178;15.432;2022-09-09T06:59:27;9.50;99.90
11446;DHT22;5779;64.178;15.432;2022-09-09T07:02:15;9.30;99.90
11446;DHT22;5779;64.178;15.432;2022-09-09T07:05:04;9.50;99.90
11446;DHT22;5779;64.178;15.432;2022-09-09T07:07:51;9.30;99.90
11446;DHT22;5779;64.178;15.432;2022-09-09T07:10:38;9.30;99.90
11446;DHT22;5779;64.178;15.432;2022-09-09T07:13:25;9.20;99.90
11446;DHT22;5779;64.178;15.432;2022-09-09T07:16:14;9.20;99.90
11446;DHT22;5779;64.178;15.432;2022-09-09T07:19:01;9.30;99.90
11446;DHT22;5779;64.178;15.432;2022-09-09T07:21:49;9.50;99.90
11446;DHT22;5779;64.178;15.432;2022-09-09T07:24:35;9.60;99.90
11446;DHT22;5779;64.178;15.432;2022-09-09T07:27:22;9.60;99.90
11446;DHT22;5779;64.178;15.432;2022-09-09T07:30:10;9.60;99.90
11446;DHT22;5779;64.178;15.432;2022-09-09T07:32:57;9.70;99.90
11446;DHT22;5779;64.178;15.432;2022-09-09T07:35:44;9.60;99.90
11446;DHT22;5779;64.178;15.432;2022-09-09T07:38:32;9.50;99.90
11446;DHT22;5779;64.178;15.432;2022-09-09T07:41:21;9.60;99.90
11446;DHT22;5779;64.178;15.432;2022-09-09T07:44:11;9.40;99.90
11446;DHT22;5779;64.178;15.432;2022-09-09T07:46:58;9.10;99.90
11446;DHT22;5779;64.178;15.432;2022-09-09T07:49:44;9.00;99.90
11446;DHT22;5779;64.178;15.432;2022-09-09T07:52:33;9.20;99.90
11446;DHT22;5779;64.178;15.432;2022-09-09T07:55:21;9.30;99.90
11446;DHT22;5779;64.178;15.432;2022-09-09T07:58:10;9.60;99.90
11446;DHT22;5779;64.178;15.432;2022-09-09T08:00:56;9.60;99.90
11446;DHT22;5779;64.178;15.432;2022-09-09T08:03:44;9.80;99.90
11446;DHT22;5779;64.178;15.432;2022-09-09T08:06:32;9.50;99.90
11446;DHT22;5779;64.178;15.432;2022-09-09T08:09:20;9.50;99.90
11446;DHT22;5779;64.178;15.432;2022-09-09T08:12:09;9.60;99.90
11446;DHT22;5779;64.178;15.432;2022-09-09T08:14:58;9.60;99.90
11446;DHT22;5779;64.178;15.432;2022-09-09T08:17:44;9.60;99.90
11446;DHT22;5779;64.178;15.432;2022-09-09T08:20:31;9.70;99.90
11446;DHT22;5779;64.178;15.432;2022-09-09T08:23:18;9.80;99.90
11446;DHT22;5779;64.178;15.432;2022-09-09T08:26:06;9.90;99.90
11446;DHT22;5779;64.178;15.432;2022-09-09T08:28:56;9.80;99.90
11446;DHT22;5779;64.178;15.432;2022-09-09T08:31:45;9.90;99.90
11446;DHT22;5779;64.178;15.432;2022-09-09T08:34:32;10.00;99.90
11446;DHT22;5779;64.178;15.432;2022-09-09T08:37:19;10.00;99.90
11446;DHT22;5779;64.178;15.432;2022-09-09T08:40:10;9.80;99.90
11446;DHT22;5779;64.178;15.432;2022-09-09T08:43:04;9.80;99.90
11446;DHT22;5779;64.178;15.432;2022-09-09T08:45:57;9.70;99.90
11446;DHT22;5779;64.178;15.432;2022-09-09T08:48:52;9.70;99.90
11446;DHT22;5779;64.178;15.432;2022-09-09T08:51:43;9.80;99.90
11446;DHT22;5779;64.178;15.432;2022-09-09T08:54:34;9.70;99.90
11446;DHT22;5779;64.178;15.432;2022-09-09T08:57:25;9.60;99.90
11446;DHT22;5779;64.178;15.432;2022-09-09T09:00:13;9.60;99.90
11446;DHT22;5779;64.178;15.432;2022-09-09T09:03:09;9.80;99.90
11446;DHT22;5779;64.178;15.432;2022-09-09T09:06:06;10.00;99.90
11446;DHT22;5779;64.178;15.432;2022-09-09T09:09:01;10.10;99.90
11446;DHT22;5779;64.178;15.432;2022-09-09T09:11:51;10.20;99.90
11446;DHT22;5779;64.178;15.432;2022-09-09T09:14:39;10.20;99.90
11446;DHT22;5779;64.178;15.432;2022-09-09T09:17:28;10.30;99.90
11446;DHT22;5779;64.178;15.432;2022-09-09T09:20:27;10.40;99.90
11446;DHT22;5779;64.178;15.432;2022-09-09T09:23:22;10.60;99.90
11446;DHT22;5779;64.178;15.432;2022-09-09T09:26:10;10.70;99.90
11446;DHT22;5779;64.178;15.432;2022-09-09T09:28:59;10.60;99.90
11446;DHT22;5779;64.178;15.432;2022-09-09T09:31:52;10.70;99.90
11446;DHT22;5779;64.178;15.432;2022-09-09T09:34:40;10.40;99.90
11446;DHT22;5779;64.178;15.432;2022-09-09T09:37:31;10.40;99.90
11446;DHT22;5779;64.178;15.432;2022-09-09T09:40:20;10.60;99.90
11446;DHT22;5779;64.178;15.432;2022-09-09T09:43:20;10.60;99.90
11446;DHT22;5779;64.178;15.432;2022-09-09T09:46:20;10.50;99.90
11446;DHT22;5779;64.178;15.432;2022-09-09T09:49:10;10.30;99.90
11446;DHT22;5779;64.178;15.432;2022-09-09T09:52:00;10.20;99.90
11446;DHT22;5779;64.178;15.432;2022-09-09T09:54:49;10.40;99.90
11446;DHT22;5779;64.178;15.432;2022-09-09T09:57:36;10.60;99.90
11446;DHT22;5779;64.178;15.432;2022-09-09T10:00:23;10.60;99.90
11446;DHT22;5779;64.178;15.432;2022-09-09T10:03:23;10.60;99.90
11446;DHT22;5779;64.178;15.432;2022-09-09T10:06:11;10.70;99.90
11446;DHT22;5779;64.178;15.432;2022-09-09T10:08:57;10.70;99.90
11446;DHT22;5779;64.178;15.432;2022-09-09T10:11:52;10.70;99.90
11446;DHT22;5779;64.178;15.432;2022-09-09T10:14:48;10.70;99.90
11446;DHT22;5779;64.178;15.432;2022-09-09T10:17:44;11.00;99.90
11446;DHT22;5779;64.178;15.432;2022-09-09T10:20:42;11.20;99.90
11446;DHT22;5779;64.178;15.432;2022-09-09T10:23:45;11.40;99.90
11446;DHT22;5779;64.178;15.432;2022-09-09T10:26:44;11.60;99.90
11446;DHT22;5779;64.178;15.432;2022-09-09T10:29:44;11.70;99.90
11446;DHT22;5779;64.178;15.432;2022-09-09T10:32:40;11.90;99.90
11446;DHT22;5779;64.178;15.432;2022-09-09T10:35:30;11.90;99.90
11446;DHT22;5779;64.178;15.432;2022-09-09T10:38:20;12.10;99.90
11446;DHT22;5779;64.178;15.432;2022-09-09T10:41:19;12.10;99.90
11446;DHT22;5779;64.178;15.432;2022-09-09T10:44:23;12.20;99.90
11446;DHT22;5779;64.178;15.432;2022-09-09T10:50:48;12.70;99.90
11446;DHT22;5779;64.178;15.432;2022-09-09T10:53:46;13.00;99.90
11446;DHT22;5779;64.178;15.432;2022-09-09T10:56:38;12.80;99.90
11446;DHT22;5779;64.178;15.432;2022-09-09T10:59:28;13.00;99.90
11446;DHT22;5779;64.178;15.432;2022-09-09T11:02:21;13.10;99.90
11446;DHT22;5779;64.178;15.432;2022-09-09T11:05:17;13.10;99.90
11446;DHT22;5779;64.178;15.432;2022-09-09T11:08:13;13.40;99.90
11446;DHT22;5779;64.178;15.432;2022-09-09T11:11:03;13.60;99.90
11446;DHT22;5779;64.178;15.432;2022-09-09T11:13:55;13.70;99.90
11446;DHT22;5779;64.178;15.432;2022-09-09T11:16:49;13.90;99.90
11446;DHT22;5779;64.178;15.432;2022-09-09T11:19:39;13.90;99.90
11446;DHT22;5779;64.178;15.432;2022-09-09T11:22:32;13.90;99.90
11446;DHT22;5779;64.178;15.432;2022-09-09T11:25:25;13.90;99.90
11446;DHT22;5779;64.178;15.432;2022-09-09T11:28:34;13.60;99.90
11446;DHT22;5779;64.178;15.432;2022-09-09T11:31:40;13.80;99.90
11446;DHT22;5779;64.178;15.432;2022-09-09T11:34:40;13.70;99.90
11446;DHT22;5779;64.178;15.432;2022-09-09T11:41:03;13.90;99.90
11446;DHT22;5779;64.178;15.432;2022-09-09T11:43:52;13.90;99.90
11446;DHT22;5779;64.178;15.432;2022-09-09T11:46:39;14.00;99.90
11446;DHT22;5779;64.178;15.432;2022-09-09T11:49:28;14.00;99.90
11446;DHT22;5779;64.178;15.432;2022-09-09T11:52:22;14.10;99.90
11446;DHT22;5779;64.178;15.432;2022-09-09T11:55:11;14.30;99.90
11446;DHT22;5779;64.178;15.432;2022-09-09T11:58:17;14.40;99.90
11446;DHT22;5779;64.178;15.432;2022-09-09T12:01:36;14.80;99.90
11446;DHT22;5779;64.178;15.432;2022-09-09T12:04:38;14.90;99.90
11446;DHT22;5779;64.178;15.432;2022-09-09T12:07:33;14.80;99.90
11446;DHT22;5779;64.178;15.432;2022-09-09T12:10:25;14.90;99.90
11446;DHT22;5779;64.178;15.432;2022-09-09T12:13:18;14.60;99.90
11446;DHT22;5779;64.178;15.432;2022-09-09T12:16:05;14.50;99.90
11446;DHT22;5779;64.178;15.432;2022-09-09T12:19:16;14.50;99.90
11446;DHT22;5779;64.178;15.432;2022-09-09T12:22:07;14.50;99.90
11446;DHT22;5779;64.178;15.432;2022-09-09T12:25:05;14.90;99.90
11446;DHT22;5779;64.178;15.432;2022-09-09T12:28:03;15.00;99.90
11446;DHT22;5779;64.178;15.432;2022-09-09T12:30:58;15.10;99.90
11446;DHT22;5779;64.178;15.432;2022-09-09T12:33:47;15.20;99.90
11446;DHT22;5779;64.178;15.432;2022-09-09T12:36:34;15.40;99.90
11446;DHT22;5779;64.178;15.432;2022-09-09T12:39:26;15.30;99.90
11446;DHT22;5779;64.178;15.432;2022-09-09T12:42:17;15.20;99.90
11446;DHT22;5779;64.178;15.432;2022-09-09T12:45:16;15.60;99.90
11446;DHT22;5779;64.178;15.432;2022-09-09T12:48:06;15.90;99.90
11446;DHT22;5779;64.178;15.432;2022-09-09T12:50:54;16.20;99.90
11446;DHT22;5779;64.178;15.432;2022-09-09T12:53:42;16.20;99.90
11446;DHT22;5779;64.178;15.432;2022-09-09T12:56:31;16.50;99.90
11446;DHT22;5779;64.178;15.432;2022-09-09T12:59:24;16.60;99.90
11446;DHT22;5779;64.178;15.432;2022-09-09T13:02:19;16.60;99.90
11446;DHT22;5779;64.178;15.432;2022-09-09T13:05:17;16.50;99.90
11446;DHT22;5779;64.178;15.432;2022-09-09T13:08:05;16.60;99.90
11446;DHT22;5779;64.178;15.432;2022-09-09T13:10:55;16.80;99.90
11446;DHT22;5779;64.178;15.432;2022-09-09T13:13:50;17.00;99.90
11446;DHT22;5779;64.178;15.432;2022-09-09T13:16:38;17.10;99.90
11446;DHT22;5779;64.178;15.432;2022-09-09T13:19:25;17.20;99.90
11446;DHT22;5779;64.178;15.432;2022-09-09T13:22:21;17.20;99.90
11446;DHT22;5779;64.178;15.432;2022-09-09T13:25:19;17.40;99.90
11446;DHT22;5779;64.178;15.432;2022-09-09T13:28:20;17.40;99.90
11446;DHT22;5779;64.178;15.432;2022-09-09T13:31:20;17.60;99.90
11446;DHT22;5779;64.178;15.432;2022-09-09T13:34:11;17.70;99.90
11446;DHT22;5779;64.178;15.432;2022-09-09T13:37:01;18.00;99.90
11446;DHT22;5779;64.178;15.432;2022-09-09T13:39:52;17.60;99.90
11446;DHT22;5779;64.178;15.432;2022-09-09T13:42:41;16.50;99.90
11446;DHT22;5779;64.178;15.432;2022-09-09T13:45:28;16.80;99.90
11446;DHT22;5779;64.178;15.432;2022-09-09T13:48:18;17.30;99.90
11446;DHT22;5779;64.178;15.432;2022-09-09T13:51:32;17.40;99.90
11446;DHT22;5779;64.178;15.432;2022-09-09T13:54:14;17.70;99.90
11446;DHT22;5779;64.178;15.432;2022-09-09T13:57:02;17.90;99.90
11446;DHT22;5779;64.178;15.432;2022-09-09T13:59:49;17.50;99.90
11446;DHT22;5779;64.178;15.432;2022-09-09T14:02:36;17.80;99.90
11446;DHT22;5779;64.178;15.432;2022-09-09T14:05:24;17.60;99.90
11446;DHT22;5779;64.178;15.432;2022-09-09T14:08:24;17.90;99.90
11446;DHT22;5779;64.178;15.432;2022-09-09T14:11:13;18.10;99.90
11446;DHT22;5779;64.178;15.432;2022-09-09T14:14:01;17.90;99.90
11446;DHT22;5779;64.178;15.432;2022-09-09T14:16:48;17.70;99.90
11446;DHT22;5779;64.178;15.432;2022-09-09T14:19:35;17.60;99.90
11446;DHT22;5779;64.178;15.432;2022-09-09T14:22:22;18.00;99.90
11446;DHT22;5779;64.178;15.432;2022-09-09T14:25:10;18.20;99.90
11446;DHT22;5779;64.178;15.432;2022-09-09T14:27:58;18.30;99.90
11446;DHT22;5779;64.178;15.432;2022-09-09T14:30:46;18.30;99.90
11446;DHT22;5779;64.178;15.432;2022-09-09T14:33:33;18.50;99.90
11446;DHT22;5779;64.178;15.432;2022-09-09T14:36:20;18.40;99.90
11446;DHT22;5779;64.178;15.432;2022-09-09T14:39:07;18.50;99.90
11446;DHT22;5779;64.178;15.432;2022-09-09T14:41:54;18.60;99.90
11446;DHT22;5779;64.178;15.432;2022-09-09T14:44:41;18.50;99.90
11446;DHT22;5779;64.178;15.432;2022-09-09T14:47:30;18.40;99.90
11446;DHT22;5779;64.178;15.432;2022-09-09T14:50:16;18.20;99.90
11446;DHT22;5779;64.178;15.432;2022-09-09T14:53:03;18.20;99.90
11446;DHT22;5779;64.178;15.432;2022-09-09T14:55:50;18.30;99.90
11446;DHT22;5779;64.178;15.432;2022-09-09T14:58:37;18.50;99.90
11446;DHT22;5779;64.178;15.432;2022-09-09T15:01:25;18.60;99.90
11446;DHT22;5779;64.178;15.432;2022-09-09T15:04:14;18.50;99.90
11446;DHT22;5779;64.178;15.432;2022-09-09T15:07:02;18.50;99.90
11446;DHT22;5779;64.178;15.432;2022-09-09T15:09:49;18.80;99.90
11446;DHT22;5779;64.178;15.432;2022-09-09T15:12:35;19.00;99.90
11446;DHT22;5779;64.178;15.432;2022-09-09T15:15:23;19.00;99.90
11446;DHT22;5779;64.178;15.432;2022-09-09T15:18:11;18.90;99.90
11446;DHT22;5779;64.178;15.432;2022-09-09T15:21:00;19.00;99.90
11446;DHT22;5779;64.178;15.432;2022-09-09T15:23:48;19.00;99.90
11446;DHT22;5779;64.178;15.432;2022-09-09T15:26:37;18.90;99.90
11446;DHT22;5779;64.178;15.432;2022-09-09T15:29:25;19.10;99.90
11446;DHT22;5779;64.178;15.432;2022-09-09T15:32:12;19.00;99.90
11446;DHT22;5779;64.178;15.432;2022-09-09T15:34:58;19.00;99.90
11446;DHT22;5779;64.178;15.432;2022-09-09T15:37:48;19.20;99.90
11446;DHT22;5779;64.178;15.432;2022-09-09T15:40:34;19.40;99.90
11446;DHT22;5779;64.178;15.432;2022-09-09T15:43:21;19.40;99.90
11446;DHT22;5779;64.178;15.432;2022-09-09T15:46:23;19.40;99.90
11446;DHT22;5779;64.178;15.432;2022-09-09T15:49:15;19.30;99.90
11446;DHT22;5779;64.178;15.432;2022-09-09T15:52:02;19.20;99.90
11446;DHT22;5779;64.178;15.432;2022-09-09T15:54:50;19.20;99.90
11446;DHT22;5779;64.178;15.432;2022-09-09T15:57:36;19.00;99.90
11446;DHT22;5779;64.178;15.432;2022-09-09T16:00:23;19.00;99.90
11446;DHT22;5779;64.178;15.432;2022-09-09T16:03:10;18.80;99.90
11446;DHT22;5779;64.178;15.432;2022-09-09T16:05:57;18.80;99.90
11446;DHT22;5779;64.178;15.432;2022-09-09T16:08:45;18.30;99.90
11446;DHT22;5779;64.178;15.432;2022-09-09T16:11:37;17.80;99.90
11446;DHT22;5779;64.178;15.432;2022-09-09T16:14:24;17.30;99.90
11446;DHT22;5779;64.178;15.432;2022-09-09T16:17:11;17.10;99.90
11446;DHT22;5779;64.178;15.432;2022-09-09T16:19:59;17.00;99.90
11446;DHT22;5779;64.178;15.432;2022-09-09T16:22:46;16.50;99.90
11446;DHT22;5779;64.178;15.432;2022-09-09T16:25:32;16.20;99.90
11446;DHT22;5779;64.178;15.432;2022-09-09T16:28:20;16.10;99.90
11446;DHT22;5779;64.178;15.432;2022-09-09T16:31:08;16.10;99.90
11446;DHT22;5779;64.178;15.432;2022-09-09T16:33:55;16.40;99.90
11446;DHT22;5779;64.178;15.432;2022-09-09T16:36:43;17.00;99.90
11446;DHT22;5779;64.178;15.432;2022-09-09T16:39:29;17.50;99.90
11446;DHT22;5779;64.178;15.432;2022-09-09T16:42:16;17.80;99.90
11446;DHT22;5779;64.178;15.432;2022-09-09T16:45:05;17.80;99.90
11446;DHT22;5779;64.178;15.432;2022-09-09T16:47:52;17.50;99.90
11446;DHT22;5779;64.178;15.432;2022-09-09T16:50:39;17.50;99.90
11446;DHT22;5779;64.178;15.432;2022-09-09T16:53:25;17.30;99.90
11446;DHT22;5779;64.178;15.432;2022-09-09T16:56:14;17.30;99.90
11446;DHT22;5779;64.178;15.432;2022-09-09T16:59:03;17.50;99.90
11446;DHT22;5779;64.178;15.432;2022-09-09T17:01:52;17.20;99.90
11446;DHT22;5779;64.178;15.432;2022-09-09T17:04:39;17.00;99.90
11446;DHT22;5779;64.178;15.432;2022-09-09T17:07:26;16.80;99.90
11446;DHT22;5779;64.178;15.432;2022-09-09T17:10:13;16.20;99.90
11446;DHT22;5779;64.178;15.432;2022-09-09T17:13:00;16.00;99.90
11446;DHT22;5779;64.178;15.432;2022-09-09T17:15:48;15.70;99.90
11446;DHT22;5779;64.178;15.432;2022-09-09T17:18:37;15.60;99.90
11446;DHT22;5779;64.178;15.432;2022-09-09T17:21:25;15.30;99.90
11446;DHT22;5779;64.178;15.432;2022-09-09T17:24:12;15.00;99.90
11446;DHT22;5779;64.178;15.432;2022-09-09T17:27:00;14.90;99.90
11446;DHT22;5779;64.178;15.432;2022-09-09T17:29:47;14.80;99.90
11446;DHT22;5779;64.178;15.432;2022-09-09T17:32:33;14.70;99.90
11446;DHT22;5779;64.178;15.432;2022-09-09T17:35:22;14.60;99.90
11446;DHT22;5779;64.178;15.432;2022-09-09T17:38:08;14.50;99.90
11446;DHT22;5779;64.178;15.432;2022-09-09T17:41:04;14.40;99.90
11446;DHT22;5779;64.178;15.432;2022-09-09T17:43:52;14.10;99.90
11446;DHT22;5779;64.178;15.432;2022-09-09T17:46:40;14.00;99.90
11446;DHT22;5779;64.178;15.432;2022-09-09T17:49:27;13.90;99.90
11446;DHT22;5779;64.178;15.432;2022-09-09T17:52:15;13.60;99.90
11446;DHT22;5779;64.178;15.432;2022-09-09T17:55:02;13.50;99.90
11446;DHT22;5779;64.178;15.432;2022-09-09T17:57:49;13.40;99.90
11446;DHT22;5779;64.178;15.432;2022-09-09T18:00:36;13.20;99.90
11446;DHT22;5779;64.178;15.432;2022-09-09T18:03:22;13.00;99.90
11446;DHT22;5779;64.178;15.432;2022-09-09T18:06:12;12.60;99.90
11446;DHT22;5779;64.178;15.432;2022-09-09T18:09:03;12.40;99.90